الصفحة الرئيسية
METAR-TAF:

METAR-TAF

مطار :

Berlevåg, النرويج

دائرة عرض: 70-52N, خط طول: 029-02E, ارتفاع: 1 متر

مراقبة الطقس الحالي

تاريخ ووقت الإصدار 28 دقيقة قبل الساعة 01:50UTC
رياح هادئة
درجة الحرارة 11°درجة مئوية
الرطوبة 94%
ضغط 1016 hPa
الرؤية 10 كم أو أكثر

METAR: ENBV 160150Z AUTO 00000KT 9999 OVC071/// 11/10 Q1016

زمن: 04:18 (02:18 UTC)

توقعات

تاريخ ووقت الإصدار 6ساعات و 57 دقيقة قبل الساعة 19:21UTC
التوقعات صالحة من15 الساعة 19 UTC إلى 15 الساعة 23 UTC
ريح 9 عقدة من الشرق
الرؤية 10 كم أو أكثر
غيوم قليلة على ارتفاع 500 قدم
نظرية الاحتمالات 40% :
مؤقت
من 15 الساعة 19 UTC إلى 15 الساعة 23 UTC
الرؤية: 4000 متر
على ارتفاع 400 قدم
غشاء,

TAF: ENBV 151921Z 1519/1523 10009KT 9999 FEW005 PROB40 TEMPO 1519/1523 4000 BR VV004

أرصاد الطقس والتوقعات من أكثر من 4000 مطار (تقارير الطقس للمطار METAR والتنبؤ بالطقس بالمطارTAF).

المحطات المتاحة هي النقط الصفراء والحمراء على الخريطة.

حرك المؤشر فوق النقطة لمعرفة اسم المحطة.

ثم انقر لمعرفة أرصاد وتوقعات الطقس.

لتغيير الخارطة: اضغط على الأزرار الخضراء مع رمز الصليب الأسود للتكبير. على الزر الأخضر مع شرطة للتصغير، أو على الأسهم الخضراء للخرائط المجاورة.


METAR-TAF: